createdAt,value
2019-04-22T00:02:09.540Z,28.30
2019-04-22T00:04:47.553Z,28.10
2019-04-22T00:07:31.994Z,28.10
2019-04-22T00:12:34.861Z,28.20
2019-04-22T00:14:57.051Z,28.10
2019-04-22T00:17:40.145Z,28.10
2019-04-22T00:20:04.745Z,28.10
2019-04-22T00:22:32.062Z,28.20
2019-04-22T00:25:09.589Z,28.20
2019-04-22T00:27:42.843Z,28.30
2019-04-22T00:30:07.908Z,28.80
2019-04-22T00:32:30.338Z,28.50
2019-04-22T00:35:07.032Z,28.40
2019-04-22T00:37:37.885Z,28.50
2019-04-22T00:40:10.359Z,28.40
2019-04-22T00:45:06.371Z,28.50
2019-04-22T00:52:37.154Z,28.80
2019-04-22T00:57:32.352Z,29.10
2019-04-22T01:00:05.513Z,29.10
2019-04-22T01:02:41.856Z,29.00
2019-04-22T01:05:09.316Z,29.10
2019-04-22T01:07:37.157Z,29.40
2019-04-22T01:10:11.597Z,29.20
2019-04-22T01:12:42.682Z,29.20
2019-04-22T01:15:10.660Z,29.10
2019-04-22T01:17:40.297Z,29.30
2019-04-22T01:20:25.764Z,29.30
2019-04-22T01:22:33.048Z,29.40
2019-04-22T01:25:04.492Z,29.40
2019-04-22T01:27:32.411Z,29.50
2019-04-22T01:29:59.725Z,29.40
2019-04-22T01:32:22.913Z,29.50
2019-04-22T01:34:57.586Z,29.50
2019-04-22T01:37:36.030Z,29.50
2019-04-22T01:40:11.371Z,29.40
2019-04-22T01:42:50.451Z,29.40
2019-04-22T01:45:14.062Z,29.40
2019-04-22T01:47:43.806Z,29.50
2019-04-22T01:50:12.281Z,29.40
2019-04-22T01:52:47.320Z,29.50
2019-04-22T01:55:17.500Z,29.50
2019-04-22T01:57:43.296Z,29.50
2019-04-22T02:00:09.779Z,29.60
2019-04-22T02:02:41.788Z,29.70
2019-04-22T02:05:16.070Z,29.60
2019-04-22T02:07:42.430Z,29.50
2019-04-22T02:10:11.159Z,29.50
2019-04-22T02:12:48.438Z,29.50
2019-04-22T02:15:16.688Z,29.50
2019-04-22T02:17:50.295Z,29.60
2019-04-22T02:20:16.842Z,29.60
2019-04-22T02:23:36.987Z,29.60
2019-04-22T02:25:51.042Z,29.50
2019-04-22T02:28:28.362Z,29.60
2019-04-22T02:31:05.007Z,29.60
2019-04-22T02:33:45.943Z,29.60
2019-04-22T02:36:09.033Z,29.70
2019-04-22T02:38:34.851Z,29.60
2019-04-22T02:41:13.190Z,29.60
2019-04-22T02:43:23.826Z,29.50
2019-04-22T02:46:03.037Z,29.50
2019-04-22T02:48:40.146Z,29.60
2019-04-22T02:50:58.246Z,29.50
2019-04-22T02:53:30.073Z,29.40
2019-04-22T02:58:34.152Z,29.40
2019-04-22T03:01:01.486Z,29.90
2019-04-22T03:13:30.205Z,29.10
2019-04-22T03:16:01.210Z,29.10
2019-04-22T03:18:35.462Z,28.90
2019-04-22T03:28:33.043Z,28.70
2019-04-22T03:31:26.153Z,28.70
2019-04-22T03:33:51.743Z,28.60
2019-04-22T03:36:05.033Z,28.60
2019-04-22T03:38:41.171Z,28.50
2019-04-22T03:41:03.253Z,28.40
2019-04-22T03:43:38.073Z,28.40
2019-04-22T03:45:58.808Z,28.50
2019-04-22T03:48:27.106Z,28.40
2019-04-22T03:51:09.254Z,28.30
2019-04-22T03:56:02.443Z,28.30
2019-04-22T03:58:32.239Z,28.30
2019-04-22T04:01:21.914Z,28.90
2019-04-22T04:03:33.839Z,28.30
2019-04-22T04:08:39.142Z,28.30
2019-04-22T04:13:33.756Z,28.40
2019-04-22T04:15:55.758Z,28.40
2019-04-22T04:18:39.580Z,28.50
2019-04-22T04:21:12.800Z,28.50
2019-04-22T04:23:37.821Z,28.60
2019-04-22T04:26:00.905Z,28.80
2019-04-22T04:31:09.532Z,28.80
2019-04-22T04:33:51.810Z,28.80
2019-04-22T04:36:02.465Z,28.80
2019-04-22T04:38:43.459Z,28.90
2019-04-22T04:41:10.858Z,29.00
2019-04-22T04:43:35.396Z,28.90
2019-04-22T04:46:06.792Z,29.00
2019-04-22T04:48:42.572Z,29.00
2019-04-22T04:51:30.573Z,29.10
2019-04-22T04:56:11.619Z,29.00
2019-04-22T04:58:46.947Z,29.10
2019-04-22T05:01:05.624Z,29.20
2019-04-22T05:06:05.550Z,29.50
2019-04-22T05:08:52.536Z,29.50
2019-04-22T05:13:39.513Z,29.60
2019-04-22T05:16:17.705Z,29.60
2019-04-22T05:18:39.570Z,29.60
2019-04-22T05:23:38.322Z,29.60
2019-04-22T05:26:05.855Z,29.60
2019-04-22T05:28:30.251Z,29.70
2019-04-22T05:31:05.046Z,29.60
2019-04-22T05:33:33.211Z,29.60
2019-04-22T05:36:06.096Z,29.70
2019-04-22T05:38:39.956Z,29.90
2019-04-22T05:41:02.607Z,29.90
2019-04-22T05:43:38.547Z,29.90
2019-04-22T05:46:03.001Z,29.90
2019-04-22T05:48:33.133Z,29.90
2019-04-22T05:51:01.124Z,29.90
2019-04-22T05:53:37.256Z,29.70
2019-04-22T05:56:04.194Z,29.70
2019-04-22T05:58:39.062Z,29.70
2019-04-22T06:01:36.534Z,29.70
2019-04-22T06:03:42.575Z,29.60
2019-04-22T06:06:12.675Z,29.60
2019-04-22T06:08:40.173Z,29.60
2019-04-22T06:11:09.416Z,29.60
2019-04-22T06:13:33.063Z,29.50
2019-04-22T06:16:01.923Z,29.50
2019-04-22T06:18:33.459Z,29.50
2019-04-22T06:23:42.451Z,29.40
2019-04-22T06:26:21.965Z,29.50
2019-04-22T06:28:40.662Z,29.50
2019-04-22T06:31:11.085Z,29.70
2019-04-22T06:33:43.511Z,29.70
2019-04-22T06:36:08.603Z,29.80
2019-04-22T06:38:40.318Z,29.80
2019-04-22T06:43:43.302Z,29.60
2019-04-22T06:46:08.475Z,29.50
2019-04-22T06:48:35.696Z,29.40
2019-04-22T06:51:09.432Z,29.30
2019-04-22T06:53:43.847Z,29.20
2019-04-22T06:56:14.264Z,29.20
2019-04-22T06:58:39.704Z,29.20
2019-04-22T07:01:17.869Z,29.10
2019-04-22T07:06:17.555Z,29.10
2019-04-22T07:08:59.611Z,28.90
2019-04-22T07:11:05.752Z,28.90
2019-04-22T07:16:13.209Z,29.00
2019-04-22T07:18:45.008Z,28.80
2019-04-22T07:21:10.417Z,28.70
2019-04-22T07:28:37.789Z,28.70
2019-04-22T07:33:48.808Z,28.40
2019-04-22T07:36:41.800Z,28.30
2019-04-22T07:38:40.969Z,28.30
2019-04-22T07:41:17.274Z,28.10
2019-04-22T07:43:59.621Z,28.10
2019-04-22T07:46:16.444Z,28.20
2019-04-22T07:48:56.559Z,28.60
2019-04-22T07:53:48.499Z,27.80
2019-04-22T07:56:21.505Z,27.50
2019-04-22T07:58:48.545Z,27.50
2019-04-22T08:01:20.495Z,27.50
2019-04-22T08:04:12.485Z,27.50
2019-04-22T08:06:17.320Z,27.40
2019-04-22T08:08:45.474Z,27.20
2019-04-22T08:11:43.733Z,27.00
2019-04-22T08:13:47.389Z,27.00
2019-04-22T08:16:18.390Z,27.00
2019-04-22T08:18:45.666Z,26.80
2019-04-22T08:21:19.997Z,26.70
2019-04-22T08:23:50.918Z,26.80
2019-04-22T08:26:19.569Z,26.90
2019-04-22T08:28:53.387Z,26.90
2019-04-22T08:31:20.591Z,26.90
2019-04-22T08:34:12.045Z,27.10
2019-04-22T08:38:54.002Z,26.70
2019-04-22T08:51:29.511Z,26.20
2019-04-22T08:54:06.100Z,26.10
2019-04-22T08:59:06.990Z,26.10
2019-04-22T09:01:27.080Z,25.70
2019-04-22T09:06:47.440Z,25.60
2019-04-22T09:09:04.720Z,26.20
2019-04-22T09:11:35.912Z,25.10
2019-04-22T09:14:01.652Z,25.20
2019-04-22T09:16:33.328Z,24.00
2019-04-22T09:19:02.578Z,23.40
2019-04-22T09:21:49.993Z,23.50
2019-04-22T09:24:03.936Z,23.30
2019-04-22T09:29:05.197Z,23.10
2019-04-22T09:31:30.458Z,22.50
2019-04-22T09:33:59.064Z,22.50
2019-04-22T09:36:50.482Z,22.20
2019-04-22T09:39:01.609Z,21.80
2019-04-22T09:41:40.104Z,22.10
2019-04-22T09:44:04.379Z,21.90
2019-04-22T09:49:12.310Z,22.50
2019-04-22T09:51:37.514Z,22.40
2019-04-22T09:54:13.933Z,22.20
2019-04-22T09:56:45.196Z,21.80
2019-04-22T09:59:07.702Z,22.20
2019-04-22T10:04:27.294Z,21.50
2019-04-22T10:06:39.425Z,21.30
2019-04-22T10:11:46.237Z,20.30
2019-04-22T10:14:17.047Z,20.20
2019-04-22T10:16:46.442Z,20.50
2019-04-22T10:19:31.645Z,20.50
2019-04-22T10:24:13.712Z,20.10
2019-04-22T10:26:44.133Z,19.90
2019-04-22T10:29:20.344Z,20.10
2019-04-22T10:31:43.311Z,20.10
2019-04-22T10:34:03.905Z,19.90
2019-04-22T10:36:21.477Z,19.60
2019-04-22T10:38:50.659Z,19.90
2019-04-22T10:41:20.579Z,19.90
2019-04-22T10:43:49.175Z,20.10
2019-04-22T10:46:18.077Z,20.50
2019-04-22T10:48:46.648Z,20.80
2019-04-22T10:51:16.811Z,19.50
2019-04-22T10:53:47.213Z,19.20
2019-04-22T10:56:19.040Z,18.90
2019-04-22T10:58:48.823Z,18.40
2019-04-22T11:01:19.058Z,19.20
2019-04-22T11:03:49.068Z,19.00
2019-04-22T11:06:19.120Z,19.10
2019-04-22T11:08:52.785Z,19.20
2019-04-22T11:11:31.429Z,19.00
2019-04-22T11:13:49.549Z,19.30
2019-04-22T11:16:19.384Z,19.10
2019-04-22T11:18:49.424Z,17.90
2019-04-22T11:21:19.821Z,18.10
2019-04-22T11:23:50.421Z,17.40
2019-04-22T11:26:19.891Z,17.90
2019-04-22T11:28:49.657Z,16.90
2019-04-22T11:31:18.710Z,15.10
2019-04-22T11:33:48.384Z,15.60
2019-04-22T11:36:17.751Z,15.20
2019-04-22T11:38:55.232Z,15.80
2019-04-22T11:41:16.817Z,15.90
2019-04-22T11:43:45.551Z,15.80
2019-04-22T11:46:15.540Z,16.30
2019-04-22T11:48:45.497Z,15.10
2019-04-22T11:51:15.803Z,14.80
2019-04-22T11:53:45.083Z,14.70
2019-04-22T11:56:16.622Z,14.20
2019-04-22T11:58:46.614Z,13.80
2019-04-22T12:01:19.012Z,14.20
2019-04-22T12:03:47.783Z,13.90
2019-04-22T12:06:17.794Z,13.70
2019-04-22T12:08:47.776Z,14.90
2019-04-22T12:11:18.898Z,14.00
2019-04-22T12:13:48.198Z,14.00
2019-04-22T12:16:17.220Z,13.60
2019-04-22T12:18:47.317Z,14.10
2019-04-22T12:21:19.443Z,13.80
2019-04-22T12:23:48.707Z,14.30
2019-04-22T12:26:20.533Z,14.20
2019-04-22T12:28:49.033Z,13.40
2019-04-22T12:31:17.807Z,14.00
2019-04-22T12:33:47.656Z,14.10
2019-04-22T12:36:16.469Z,13.20
2019-04-22T12:38:47.519Z,12.70
2019-04-22T12:41:19.737Z,12.70
2019-04-22T12:43:49.252Z,12.70
2019-04-22T12:46:18.531Z,12.60
2019-04-22T12:48:47.125Z,13.00
2019-04-22T12:51:15.664Z,13.40
2019-04-22T12:53:46.097Z,14.00
2019-04-22T12:56:15.440Z,14.30
2019-04-22T12:58:45.568Z,14.70
2019-04-22T13:01:15.157Z,15.00
2019-04-22T13:03:44.659Z,15.00
2019-04-22T13:06:14.262Z,15.40
2019-04-22T13:08:43.555Z,15.60
2019-04-22T13:11:16.556Z,15.60
2019-04-22T13:13:42.890Z,16.20
2019-04-22T13:16:13.235Z,16.00
2019-04-22T13:18:49.261Z,16.10
2019-04-22T13:21:12.924Z,16.50
2019-04-22T13:23:41.719Z,16.80
2019-04-22T13:26:10.688Z,17.00
2019-04-22T13:28:39.343Z,17.20
2019-04-22T13:31:07.867Z,17.20
2019-04-22T13:33:36.982Z,17.10
2019-04-22T13:36:05.976Z,17.20
2019-04-22T13:38:35.353Z,17.10
2019-04-22T13:41:18.508Z,17.20
2019-04-22T13:43:34.703Z,17.40
2019-04-22T13:46:03.879Z,17.40
2019-04-22T13:48:52.650Z,17.40
2019-04-22T13:51:40.998Z,17.60
2019-04-22T13:54:37.228Z,17.70
2019-04-22T13:56:35.716Z,17.80
2019-04-22T13:58:54.066Z,17.70
2019-04-22T14:01:12.677Z,17.70
2019-04-22T14:03:48.936Z,17.80
2019-04-22T14:06:18.645Z,17.70
2019-04-22T14:08:47.272Z,17.80
2019-04-22T14:11:28.718Z,17.80
2019-04-22T14:13:46.188Z,17.60
2019-04-22T14:16:15.298Z,17.70
2019-04-22T14:18:45.940Z,17.70
2019-04-22T14:21:14.965Z,17.60
2019-04-22T14:23:44.744Z,17.80
2019-04-22T14:26:13.459Z,17.80
2019-04-22T14:28:43.738Z,17.90
2019-04-22T14:31:12.756Z,18.00
2019-04-22T14:33:46.287Z,18.00
2019-04-22T14:36:11.632Z,17.90
2019-04-22T14:38:41.837Z,18.30
2019-04-22T14:41:30.530Z,18.40
2019-04-22T14:44:46.879Z,18.80
2019-04-22T14:46:38.911Z,18.50
2019-04-22T14:49:02.901Z,17.50
2019-04-22T14:51:32.969Z,17.10
2019-04-22T14:54:08.577Z,17.60
2019-04-22T14:56:16.107Z,17.40
2019-04-22T14:58:44.876Z,16.10
2019-04-22T15:01:14.747Z,15.90
2019-04-22T15:03:44.820Z,16.40
2019-04-22T15:06:13.551Z,16.90
2019-04-22T15:08:42.711Z,16.60
2019-04-22T15:11:13.066Z,15.30
2019-04-22T15:13:43.307Z,15.50
2019-04-22T15:16:20.130Z,15.10
2019-04-22T15:18:51.550Z,15.70
2019-04-22T15:21:22.803Z,15.90
2019-04-22T15:23:52.768Z,16.20
2019-04-22T15:26:22.326Z,16.20
2019-04-22T15:28:55.914Z,16.00
2019-04-22T15:31:21.910Z,15.10
2019-04-22T15:33:50.420Z,15.20
2019-04-22T15:36:20.031Z,15.70
2019-04-22T15:38:49.176Z,16.20
2019-04-22T15:41:18.796Z,16.40
2019-04-22T15:43:47.747Z,16.40
2019-04-22T15:46:16.343Z,16.60
2019-04-22T15:48:48.351Z,16.50
2019-04-22T15:51:20.711Z,16.90
2019-04-22T15:53:49.588Z,17.30
2019-04-22T15:56:18.770Z,17.00
2019-04-22T15:58:47.982Z,17.20
2019-04-22T16:01:25.926Z,17.50
2019-04-22T16:03:48.301Z,17.40
2019-04-22T16:06:19.962Z,17.20
2019-04-22T16:08:49.745Z,16.90
2019-04-22T16:11:19.923Z,16.90
2019-04-22T16:13:48.525Z,17.30
2019-04-22T16:16:18.577Z,17.60
2019-04-22T16:18:48.586Z,17.60
2019-04-22T16:21:30.261Z,18.30
2019-04-22T16:24:07.334Z,17.70
2019-04-22T16:26:40.371Z,17.80
2019-04-22T16:29:11.648Z,17.90
2019-04-22T16:31:40.268Z,18.10
2019-04-22T16:34:11.273Z,18.00
2019-04-22T16:36:40.746Z,18.20
2019-04-22T16:39:11.015Z,18.40
2019-04-22T16:41:39.768Z,19.10
2019-04-22T16:44:08.919Z,18.60
2019-04-22T16:46:37.687Z,18.70
2019-04-22T16:49:07.467Z,18.80
2019-04-22T16:51:36.209Z,18.80
2019-04-22T16:54:06.352Z,18.90
2019-04-22T16:56:36.832Z,18.90
2019-04-22T16:59:06.524Z,19.40
2019-04-22T17:01:43.173Z,19.60
2019-04-22T17:04:25.017Z,19.60
2019-04-22T17:06:55.416Z,19.70
2019-04-22T17:09:25.635Z,19.80
2019-04-22T17:11:54.180Z,20.00
2019-04-22T17:14:27.251Z,20.40
2019-04-22T17:16:52.868Z,20.30
2019-04-22T17:19:21.691Z,20.50
2019-04-22T17:21:50.187Z,20.70
2019-04-22T17:24:19.513Z,20.50
2019-04-22T17:26:48.490Z,20.70
2019-04-22T17:29:18.572Z,20.60
2019-04-22T17:31:50.911Z,20.90
2019-04-22T17:34:17.838Z,20.70
2019-04-22T17:36:46.450Z,20.80
2019-04-22T17:39:30.243Z,21.10
2019-04-22T17:42:01.970Z,21.00
2019-04-22T17:44:43.938Z,21.20
2019-04-22T17:47:23.624Z,21.20
2019-04-22T17:50:02.776Z,21.30
2019-04-22T17:52:33.371Z,21.50
2019-04-22T17:54:51.560Z,21.80
2019-04-22T17:57:31.241Z,21.80
2019-04-22T17:59:54.785Z,21.60
2019-04-22T18:02:28.081Z,21.60
2019-04-22T18:04:49.615Z,22.00
2019-04-22T18:07:35.556Z,21.90
2019-04-22T18:12:37.674Z,22.20
2019-04-22T18:15:04.347Z,22.10
2019-04-22T18:17:38.632Z,22.10
2019-04-22T18:20:01.344Z,22.10
2019-04-22T18:22:24.430Z,22.40
2019-04-22T18:24:58.451Z,22.20
2019-04-22T18:27:45.707Z,22.20
2019-04-22T18:30:01.589Z,22.30
2019-04-22T18:32:24.085Z,22.30
2019-04-22T18:34:52.935Z,22.40
2019-04-22T18:37:36.067Z,22.40
2019-04-22T18:40:03.313Z,22.30
2019-04-22T18:42:26.963Z,22.40
2019-04-22T18:45:21.689Z,22.50
2019-04-22T18:47:29.444Z,22.70
2019-04-22T18:49:59.476Z,23.10
2019-04-22T18:52:53.078Z,22.70
2019-04-22T18:55:26.723Z,22.90
2019-04-22T18:58:02.704Z,23.20
2019-04-22T19:00:23.062Z,23.50
2019-04-22T19:02:59.372Z,23.30
2019-04-22T19:05:34.658Z,24.50
2019-04-22T19:08:18.743Z,23.50
2019-04-22T19:10:55.742Z,23.30
2019-04-22T19:13:49.000Z,24.30
2019-04-22T19:15:43.236Z,24.20
2019-04-22T19:18:19.146Z,24.40
2019-04-22T19:20:51.855Z,24.40
2019-04-22T19:23:20.859Z,24.50
2019-04-22T19:25:43.765Z,25.30
2019-04-22T19:28:23.934Z,24.20
2019-04-22T19:30:47.909Z,24.20
2019-04-22T19:33:19.026Z,23.90
2019-04-22T19:35:40.067Z,24.50
2019-04-22T19:38:10.985Z,24.20
2019-04-22T19:40:55.384Z,24.20
2019-04-22T19:43:15.440Z,24.80
2019-04-22T19:45:48.917Z,24.20
2019-04-22T19:48:30.987Z,24.20
2019-04-22T19:50:52.717Z,24.40
2019-04-22T19:53:37.209Z,24.30
2019-04-22T19:55:47.047Z,24.20
2019-04-22T19:58:17.684Z,24.40
2019-04-22T20:00:49.270Z,24.30
2019-04-22T20:03:50.889Z,24.40
2019-04-22T20:06:22.099Z,24.40
2019-04-22T20:08:59.320Z,24.80
2019-04-22T20:11:31.639Z,24.70
2019-04-22T20:13:56.807Z,25.50
2019-04-22T20:16:25.247Z,25.00
2019-04-22T20:19:01.490Z,24.90
2019-04-22T20:21:33.396Z,25.30
2019-04-22T20:23:49.428Z,25.20
2019-04-22T20:26:22.712Z,25.10
2019-04-22T20:28:58.980Z,25.10
2019-04-22T20:31:30.080Z,25.20
2019-04-22T20:34:03.297Z,25.20
2019-04-22T20:36:53.492Z,25.20
2019-04-22T20:38:59.537Z,25.50
2019-04-22T20:41:26.529Z,25.60
2019-04-22T20:44:05.142Z,25.40
2019-04-22T20:46:31.625Z,25.60
2019-04-22T20:49:00.164Z,25.80
2019-04-22T20:51:45.831Z,25.60
2019-04-22T20:54:09.047Z,25.70
2019-04-22T20:56:31.227Z,26.10
2019-04-22T20:59:06.903Z,25.70
2019-04-22T21:01:33.502Z,25.60
2019-04-22T21:03:50.606Z,25.60
2019-04-22T21:06:32.292Z,25.50
2019-04-22T21:09:08.930Z,25.70
2019-04-22T21:11:30.124Z,25.80
2019-04-22T21:14:01.725Z,25.80
2019-04-22T21:16:39.863Z,25.90
2019-04-22T21:19:02.727Z,25.80
2019-04-22T21:21:37.692Z,25.90
2019-04-22T21:23:56.917Z,26.10
2019-04-22T21:26:33.571Z,25.90
2019-04-22T21:29:02.862Z,26.20
2019-04-22T21:31:51.303Z,26.00
2019-04-22T21:34:02.174Z,26.40
2019-04-22T21:36:35.373Z,26.40
2019-04-22T21:39:03.778Z,26.60
2019-04-22T21:41:37.587Z,26.60
2019-04-22T21:44:06.035Z,26.70
2019-04-22T21:46:44.318Z,26.60
2019-04-22T21:49:16.591Z,27.10
2019-04-22T21:51:43.173Z,27.00
2019-04-22T21:54:09.669Z,27.10
2019-04-22T21:56:55.172Z,27.10
2019-04-22T21:59:15.565Z,27.00
2019-04-22T22:04:18.910Z,27.00
2019-04-22T22:06:39.250Z,27.30
2019-04-22T22:09:19.463Z,27.30
2019-04-22T22:11:44.503Z,27.60
2019-04-22T22:14:16.983Z,27.50
2019-04-22T22:16:38.662Z,27.70
2019-04-22T22:19:17.219Z,27.70
2019-04-22T22:21:51.183Z,27.90
2019-04-22T22:24:35.868Z,27.80
2019-04-22T22:26:50.467Z,27.90
2019-04-22T22:29:32.226Z,28.20
2019-04-22T22:31:55.568Z,28.50
2019-04-22T22:34:19.095Z,28.40
2019-04-22T22:36:40.371Z,28.60
2019-04-22T22:39:08.708Z,28.80
2019-04-22T22:41:27.926Z,28.80
2019-04-22T22:44:03.413Z,28.90
2019-04-22T22:46:39.034Z,28.70
2019-04-22T22:49:23.650Z,28.80
2019-04-22T22:54:21.518Z,28.90
2019-04-22T22:56:55.543Z,29.20
2019-04-22T22:59:17.895Z,29.20
2019-04-22T23:02:00.235Z,29.20
2019-04-22T23:04:23.099Z,29.20
2019-04-22T23:06:49.997Z,29.60
2019-04-22T23:09:22.491Z,29.80
2019-04-22T23:12:06.722Z,30.00
2019-04-22T23:14:20.530Z,29.70
2019-04-22T23:16:39.765Z,29.90
2019-04-22T23:19:06.375Z,29.90
2019-04-22T23:21:39.709Z,30.30
2019-04-22T23:24:22.701Z,30.20
2019-04-22T23:27:01.531Z,30.00
2019-04-22T23:29:25.340Z,30.30
2019-04-22T23:31:59.649Z,30.60
2019-04-22T23:34:32.485Z,30.50
2019-04-22T23:37:12.245Z,30.90
2019-04-22T23:39:48.399Z,30.80
2019-04-22T23:42:19.463Z,30.70
2019-04-22T23:44:43.365Z,30.60
2019-04-22T23:47:16.016Z,30.60
2019-04-22T23:49:53.458Z,30.70
2019-04-22T23:52:27.130Z,30.60
2019-04-22T23:54:57.121Z,31.00
2019-04-22T23:57:31.363Z,30.80
